sensor_id;sensor_type;location;lat;lon;timestamp;P1;durP1;ratioP1;P2;durP2;ratioP2
19291;SDS011;9779;51.756;7.450;2023-11-21T00:02:19;11.93;;;7.77;;
19291;SDS011;9779;51.756;7.450;2023-11-21T00:04:45;11.03;;;8.57;;
19291;SDS011;9779;51.756;7.450;2023-11-21T00:07:12;16.67;;;11.67;;
19291;SDS011;9779;51.756;7.450;2023-11-21T00:09:37;13.20;;;9.87;;
19291;SDS011;9779;51.756;7.450;2023-11-21T00:12:03;11.73;;;10.27;;
19291;SDS011;9779;51.756;7.450;2023-11-21T00:14:29;10.03;;;9.13;;
19291;SDS011;9779;51.756;7.450;2023-11-21T00:16:55;9.80;;;8.80;;
19291;SDS011;9779;51.756;7.450;2023-11-21T00:19:20;8.80;;;7.80;;
19291;SDS011;9779;51.756;7.450;2023-11-21T00:21:46;7.50;;;6.33;;
19291;SDS011;9779;51.756;7.450;2023-11-21T00:24:11;6.27;;;5.40;;
19291;SDS011;9779;51.756;7.450;2023-11-21T00:26:39;6.50;;;5.90;;
19291;SDS011;9779;51.756;7.450;2023-11-21T00:29:05;6.67;;;5.73;;
19291;SDS011;9779;51.756;7.450;2023-11-21T00:31:37;5.90;;;5.37;;
19291;SDS011;9779;51.756;7.450;2023-11-21T00:34:03;6.00;;;5.60;;
19291;SDS011;9779;51.756;7.450;2023-11-21T00:36:30;6.50;;;4.53;;
19291;SDS011;9779;51.756;7.450;2023-11-21T00:38:57;14.73;;;5.03;;
19291;SDS011;9779;51.756;7.450;2023-11-21T00:41:22;5.23;;;4.83;;
19291;SDS011;9779;51.756;7.450;2023-11-21T00:43:48;5.53;;;4.93;;
19291;SDS011;9779;51.756;7.450;2023-11-21T00:46:14;5.47;;;5.07;;
19291;SDS011;9779;51.756;7.450;2023-11-21T00:48:39;5.50;;;4.93;;
19291;SDS011;9779;51.756;7.450;2023-11-21T00:51:05;5.63;;;4.40;;
19291;SDS011;9779;51.756;7.450;2023-11-21T00:53:31;6.40;;;4.53;;
19291;SDS011;9779;51.756;7.450;2023-11-21T00:55:57;5.60;;;4.80;;
19291;SDS011;9779;51.756;7.450;2023-11-21T00:58:26;9.00;;;6.20;;
19291;SDS011;9779;51.756;7.450;2023-11-21T01:00:51;7.40;;;6.00;;
19291;SDS011;9779;51.756;7.450;2023-11-21T01:03:17;6.23;;;5.53;;
19291;SDS011;9779;51.756;7.450;2023-11-21T01:05:43;11.47;;;6.07;;
19291;SDS011;9779;51.756;7.450;2023-11-21T01:08:10;8.57;;;5.70;;
19291;SDS011;9779;51.756;7.450;2023-11-21T01:10:35;6.87;;;5.33;;
19291;SDS011;9779;51.756;7.450;2023-11-21T01:13:01;5.30;;;4.90;;
19291;SDS011;9779;51.756;7.450;2023-11-21T01:15:30;5.67;;;5.07;;
19291;SDS011;9779;51.756;7.450;2023-11-21T01:17:55;7.37;;;5.10;;
19291;SDS011;9779;51.756;7.450;2023-11-21T01:20:21;8.47;;;5.37;;
19291;SDS011;9779;51.756;7.450;2023-11-21T01:22:47;10.10;;;6.17;;
19291;SDS011;9779;51.756;7.450;2023-11-21T01:25:14;7.20;;;5.87;;
19291;SDS011;9779;51.756;7.450;2023-11-21T01:27:41;11.13;;;7.03;;
19291;SDS011;9779;51.756;7.450;2023-11-21T01:30:08;10.07;;;6.97;;
19291;SDS011;9779;51.756;7.450;2023-11-21T01:32:35;9.27;;;6.60;;
19291;SDS011;9779;51.756;7.450;2023-11-21T01:35:02;8.23;;;6.93;;
19291;SDS011;9779;51.756;7.450;2023-11-21T01:37:30;10.33;;;7.13;;
19291;SDS011;9779;51.756;7.450;2023-11-21T01:39:56;8.40;;;7.20;;
19291;SDS011;9779;51.756;7.450;2023-11-21T01:42:22;10.00;;;7.63;;
19291;SDS011;9779;51.756;7.450;2023-11-21T01:44:48;9.13;;;7.30;;
19291;SDS011;9779;51.756;7.450;2023-11-21T01:47:14;13.90;;;7.83;;
19291;SDS011;9779;51.756;7.450;2023-11-21T01:49:40;14.10;;;8.87;;
19291;SDS011;9779;51.756;7.450;2023-11-21T01:52:09;12.03;;;9.30;;
19291;SDS011;9779;51.756;7.450;2023-11-21T01:54:36;16.10;;;8.87;;
19291;SDS011;9779;51.756;7.450;2023-11-21T01:57:03;9.87;;;8.83;;
19291;SDS011;9779;51.756;7.450;2023-11-21T01:59:34;14.10;;;9.33;;
19291;SDS011;9779;51.756;7.450;2023-11-21T02:02:01;13.43;;;8.77;;
19291;SDS011;9779;51.756;7.450;2023-11-21T02:04:29;14.67;;;9.00;;
19291;SDS011;9779;51.756;7.450;2023-11-21T02:06:56;18.83;;;9.53;;
19291;SDS011;9779;51.756;7.450;2023-11-21T02:09:26;16.50;;;8.77;;
19291;SDS011;9779;51.756;7.450;2023-11-21T02:11:52;11.47;;;8.40;;
19291;SDS011;9779;51.756;7.450;2023-11-21T02:14:19;16.13;;;9.43;;
19291;SDS011;9779;51.756;7.450;2023-11-21T02:16:50;10.53;;;7.97;;
19291;SDS011;9779;51.756;7.450;2023-11-21T02:19:20;11.10;;;8.23;;
19291;SDS011;9779;51.756;7.450;2023-11-21T02:21:51;9.13;;;8.23;;
19291;SDS011;9779;51.756;7.450;2023-11-21T02:24:21;8.80;;;7.43;;
19291;SDS011;9779;51.756;7.450;2023-11-21T02:26:47;9.00;;;8.10;;
19291;SDS011;9779;51.756;7.450;2023-11-21T02:29:16;7.90;;;7.20;;
19291;SDS011;9779;51.756;7.450;2023-11-21T02:31:43;13.47;;;8.47;;
19291;SDS011;9779;51.756;7.450;2023-11-21T02:34:16;8.60;;;7.73;;
19291;SDS011;9779;51.756;7.450;2023-11-21T02:36:43;10.50;;;7.97;;
19291;SDS011;9779;51.756;7.450;2023-11-21T02:39:12;8.93;;;8.10;;
19291;SDS011;9779;51.756;7.450;2023-11-21T02:41:38;10.17;;;7.60;;
19291;SDS011;9779;51.756;7.450;2023-11-21T02:44:05;10.93;;;8.83;;
19291;SDS011;9779;51.756;7.450;2023-11-21T02:46:32;9.47;;;7.93;;
19291;SDS011;9779;51.756;7.450;2023-11-21T02:48:59;13.40;;;7.87;;
19291;SDS011;9779;51.756;7.450;2023-11-21T02:51:28;15.90;;;8.47;;
19291;SDS011;9779;51.756;7.450;2023-11-21T02:53:54;9.10;;;8.03;;
19291;SDS011;9779;51.756;7.450;2023-11-21T02:56:23;12.13;;;8.70;;
19291;SDS011;9779;51.756;7.450;2023-11-21T02:58:50;8.13;;;7.37;;
19291;SDS011;9779;51.756;7.450;2023-11-21T03:01:16;8.43;;;7.63;;
19291;SDS011;9779;51.756;7.450;2023-11-21T03:03:42;8.70;;;7.60;;
19291;SDS011;9779;51.756;7.450;2023-11-21T03:06:07;8.43;;;7.57;;
19291;SDS011;9779;51.756;7.450;2023-11-21T03:08:33;8.50;;;7.77;;
19291;SDS011;9779;51.756;7.450;2023-11-21T03:10:59;7.73;;;7.13;;
19291;SDS011;9779;51.756;7.450;2023-11-21T03:13:25;8.77;;;7.97;;
19291;SDS011;9779;51.756;7.450;2023-11-21T03:15:50;9.10;;;7.53;;
19291;SDS011;9779;51.756;7.450;2023-11-21T03:18:16;9.50;;;8.13;;
19291;SDS011;9779;51.756;7.450;2023-11-21T03:20:43;12.63;;;8.40;;
19291;SDS011;9779;51.756;7.450;2023-11-21T03:23:11;9.73;;;8.43;;
19291;SDS011;9779;51.756;7.450;2023-11-21T03:25:37;14.80;;;8.87;;
19291;SDS011;9779;51.756;7.450;2023-11-21T03:28:02;11.77;;;8.83;;
19291;SDS011;9779;51.756;7.450;2023-11-21T03:30:28;10.60;;;8.80;;
19291;SDS011;9779;51.756;7.450;2023-11-21T03:32:54;13.00;;;10.47;;
19291;SDS011;9779;51.756;7.450;2023-11-21T03:35:20;9.70;;;8.77;;
19291;SDS011;9779;51.756;7.450;2023-11-21T03:37:46;13.43;;;9.00;;
19291;SDS011;9779;51.756;7.450;2023-11-21T03:40:12;9.97;;;8.57;;
19291;SDS011;9779;51.756;7.450;2023-11-21T03:42:38;12.63;;;8.80;;
19291;SDS011;9779;51.756;7.450;2023-11-21T03:45:05;11.00;;;8.57;;
19291;SDS011;9779;51.756;7.450;2023-11-21T03:47:31;10.83;;;7.47;;
19291;SDS011;9779;51.756;7.450;2023-11-21T03:49:57;8.37;;;7.57;;
19291;SDS011;9779;51.756;7.450;2023-11-21T03:52:23;8.83;;;8.03;;
19291;SDS011;9779;51.756;7.450;2023-11-21T03:54:49;9.10;;;8.40;;
19291;SDS011;9779;51.756;7.450;2023-11-21T03:57:15;9.40;;;7.80;;
19291;SDS011;9779;51.756;7.450;2023-11-21T03:59:41;8.10;;;7.50;;
19291;SDS011;9779;51.756;7.450;2023-11-21T04:02:07;10.43;;;7.73;;
19291;SDS011;9779;51.756;7.450;2023-11-21T04:04:34;11.40;;;7.63;;
19291;SDS011;9779;51.756;7.450;2023-11-21T04:07:00;7.97;;;7.33;;
19291;SDS011;9779;51.756;7.450;2023-11-21T04:09:25;7.73;;;7.10;;
19291;SDS011;9779;51.756;7.450;2023-11-21T04:11:51;7.57;;;6.43;;
19291;SDS011;9779;51.756;7.450;2023-11-21T04:14:18;6.00;;;5.60;;
19291;SDS011;9779;51.756;7.450;2023-11-21T04:16:43;7.03;;;6.43;;
19291;SDS011;9779;51.756;7.450;2023-11-21T04:19:09;9.47;;;6.40;;
19291;SDS011;9779;51.756;7.450;2023-11-21T04:21:36;10.40;;;6.83;;
19291;SDS011;9779;51.756;7.450;2023-11-21T04:24:02;6.07;;;5.57;;
19291;SDS011;9779;51.756;7.450;2023-11-21T04:26:28;6.77;;;6.17;;
19291;SDS011;9779;51.756;7.450;2023-11-21T04:28:53;6.80;;;6.20;;
19291;SDS011;9779;51.756;7.450;2023-11-21T04:31:19;7.10;;;6.40;;
19291;SDS011;9779;51.756;7.450;2023-11-21T04:33:44;8.57;;;6.73;;
19291;SDS011;9779;51.756;7.450;2023-11-21T04:36:10;6.63;;;5.90;;
19291;SDS011;9779;51.756;7.450;2023-11-21T04:38:36;9.20;;;5.97;;
19291;SDS011;9779;51.756;7.450;2023-11-21T04:41:01;6.10;;;5.43;;
19291;SDS011;9779;51.756;7.450;2023-11-21T04:43:27;6.30;;;5.80;;
19291;SDS011;9779;51.756;7.450;2023-11-21T04:45:53;6.27;;;5.77;;
19291;SDS011;9779;51.756;7.450;2023-11-21T04:48:19;6.47;;;5.90;;
19291;SDS011;9779;51.756;7.450;2023-11-21T04:50:45;6.37;;;5.80;;
19291;SDS011;9779;51.756;7.450;2023-11-21T04:53:11;7.23;;;6.63;;
19291;SDS011;9779;51.756;7.450;2023-11-21T04:55:39;7.60;;;6.83;;
19291;SDS011;9779;51.756;7.450;2023-11-21T04:58:08;8.33;;;7.63;;
19291;SDS011;9779;51.756;7.450;2023-11-21T05:00:34;9.30;;;7.83;;
19291;SDS011;9779;51.756;7.450;2023-11-21T05:03:01;8.47;;;7.77;;
19291;SDS011;9779;51.756;7.450;2023-11-21T05:05:28;9.63;;;8.63;;
19291;SDS011;9779;51.756;7.450;2023-11-21T05:07:54;9.90;;;9.07;;
19291;SDS011;9779;51.756;7.450;2023-11-21T05:10:20;10.03;;;9.03;;
19291;SDS011;9779;51.756;7.450;2023-11-21T05:12:47;11.13;;;8.67;;
19291;SDS011;9779;51.756;7.450;2023-11-21T05:15:15;11.80;;;8.87;;
19291;SDS011;9779;51.756;7.450;2023-11-21T05:17:42;11.83;;;8.90;;
19291;SDS011;9779;51.756;7.450;2023-11-21T05:20:12;14.50;;;11.43;;
19291;SDS011;9779;51.756;7.450;2023-11-21T05:22:38;13.27;;;10.00;;
19291;SDS011;9779;51.756;7.450;2023-11-21T05:25:05;11.63;;;10.53;;
19291;SDS011;9779;51.756;7.450;2023-11-21T05:27:33;10.67;;;9.67;;
19291;SDS011;9779;51.756;7.450;2023-11-21T05:29:59;10.30;;;9.20;;
19291;SDS011;9779;51.756;7.450;2023-11-21T05:32:25;10.10;;;9.13;;
19291;SDS011;9779;51.756;7.450;2023-11-21T05:34:52;10.37;;;9.30;;
19291;SDS011;9779;51.756;7.450;2023-11-21T05:37:17;11.07;;;9.50;;
19291;SDS011;9779;51.756;7.450;2023-11-21T05:39:43;13.33;;;8.83;;
19291;SDS011;9779;51.756;7.450;2023-11-21T05:42:09;11.20;;;8.97;;
19291;SDS011;9779;51.756;7.450;2023-11-21T05:44:35;9.00;;;8.20;;
19291;SDS011;9779;51.756;7.450;2023-11-21T05:47:02;9.33;;;8.63;;
19291;SDS011;9779;51.756;7.450;2023-11-21T05:49:28;9.60;;;8.40;;
19291;SDS011;9779;51.756;7.450;2023-11-21T05:51:54;9.07;;;8.17;;
19291;SDS011;9779;51.756;7.450;2023-11-21T05:54:21;9.27;;;8.53;;
19291;SDS011;9779;51.756;7.450;2023-11-21T05:56:48;10.20;;;9.23;;
19291;SDS011;9779;51.756;7.450;2023-11-21T05:59:14;9.37;;;7.57;;
19291;SDS011;9779;51.756;7.450;2023-11-21T06:01:40;10.00;;;9.10;;
19291;SDS011;9779;51.756;7.450;2023-11-21T06:04:05;12.23;;;11.03;;
19291;SDS011;9779;51.756;7.450;2023-11-21T06:06:33;9.90;;;8.90;;
19291;SDS011;9779;51.756;7.450;2023-11-21T06:08:59;14.73;;;10.03;;
19291;SDS011;9779;51.756;7.450;2023-11-21T06:11:25;14.87;;;10.07;;
19291;SDS011;9779;51.756;7.450;2023-11-21T06:13:50;15.70;;;10.23;;
19291;SDS011;9779;51.756;7.450;2023-11-21T06:16:18;12.10;;;10.87;;
19291;SDS011;9779;51.756;7.450;2023-11-21T06:18:45;14.77;;;11.30;;
19291;SDS011;9779;51.756;7.450;2023-11-21T06:21:11;11.30;;;10.23;;
19291;SDS011;9779;51.756;7.450;2023-11-21T06:23:37;14.13;;;10.80;;
19291;SDS011;9779;51.756;7.450;2023-11-21T06:26:03;12.20;;;9.97;;
19291;SDS011;9779;51.756;7.450;2023-11-21T06:28:29;16.87;;;11.30;;
19291;SDS011;9779;51.756;7.450;2023-11-21T06:30:55;12.17;;;10.93;;
19291;SDS011;9779;51.756;7.450;2023-11-21T06:33:23;14.73;;;11.03;;
19291;SDS011;9779;51.756;7.450;2023-11-21T06:35:52;14.17;;;11.27;;
19291;SDS011;9779;51.756;7.450;2023-11-21T06:38:18;18.60;;;12.40;;
19291;SDS011;9779;51.756;7.450;2023-11-21T06:40:44;33.87;;;16.00;;
19291;SDS011;9779;51.756;7.450;2023-11-21T06:43:10;45.37;;;19.57;;
19291;SDS011;9779;51.756;7.450;2023-11-21T06:45:36;44.23;;;17.13;;
19291;SDS011;9779;51.756;7.450;2023-11-21T06:48:01;47.03;;;18.80;;
19291;SDS011;9779;51.756;7.450;2023-11-21T06:50:27;55.20;;;21.33;;
19291;SDS011;9779;51.756;7.450;2023-11-21T06:52:53;49.00;;;20.87;;
19291;SDS011;9779;51.756;7.450;2023-11-21T06:55:18;46.90;;;21.03;;
19291;SDS011;9779;51.756;7.450;2023-11-21T06:57:44;61.30;;;20.53;;
19291;SDS011;9779;51.756;7.450;2023-11-21T07:00:10;54.87;;;19.17;;
19291;SDS011;9779;51.756;7.450;2023-11-21T07:02:36;41.53;;;20.50;;
19291;SDS011;9779;51.756;7.450;2023-11-21T07:05:02;52.40;;;20.67;;
19291;SDS011;9779;51.756;7.450;2023-11-21T07:07:28;45.43;;;19.87;;
19291;SDS011;9779;51.756;7.450;2023-11-21T07:09:54;42.97;;;18.93;;
19291;SDS011;9779;51.756;7.450;2023-11-21T07:12:19;41.13;;;17.20;;
19291;SDS011;9779;51.756;7.450;2023-11-21T07:14:48;42.93;;;18.63;;
19291;SDS011;9779;51.756;7.450;2023-11-21T07:17:14;53.03;;;18.40;;
19291;SDS011;9779;51.756;7.450;2023-11-21T07:19:40;42.13;;;16.50;;
19291;SDS011;9779;51.756;7.450;2023-11-21T07:22:06;41.37;;;19.43;;
19291;SDS011;9779;51.756;7.450;2023-11-21T07:24:33;38.83;;;17.53;;
19291;SDS011;9779;51.756;7.450;2023-11-21T07:26:59;36.50;;;18.33;;
19291;SDS011;9779;51.756;7.450;2023-11-21T07:29:25;41.20;;;18.00;;
19291;SDS011;9779;51.756;7.450;2023-11-21T07:31:55;38.57;;;18.00;;
19291;SDS011;9779;51.756;7.450;2023-11-21T07:34:20;37.50;;;18.10;;
19291;SDS011;9779;51.756;7.450;2023-11-21T07:36:46;43.10;;;19.30;;
19291;SDS011;9779;51.756;7.450;2023-11-21T07:39:12;55.60;;;19.50;;
19291;SDS011;9779;51.756;7.450;2023-11-21T07:41:40;38.60;;;18.10;;
19291;SDS011;9779;51.756;7.450;2023-11-21T07:44:10;43.13;;;19.40;;
19291;SDS011;9779;51.756;7.450;2023-11-21T07:46:35;43.13;;;18.77;;
19291;SDS011;9779;51.756;7.450;2023-11-21T07:49:01;50.57;;;19.63;;
19291;SDS011;9779;51.756;7.450;2023-11-21T07:51:27;42.40;;;18.97;;
19291;SDS011;9779;51.756;7.450;2023-11-21T07:53:52;42.37;;;18.83;;
19291;SDS011;9779;51.756;7.450;2023-11-21T07:56:18;68.37;;;20.67;;
19291;SDS011;9779;51.756;7.450;2023-11-21T07:58:43;42.77;;;18.67;;
19291;SDS011;9779;51.756;7.450;2023-11-21T08:01:09;42.07;;;18.80;;
19291;SDS011;9779;51.756;7.450;2023-11-21T08:03:35;37.77;;;19.13;;
19291;SDS011;9779;51.756;7.450;2023-11-21T08:06:01;33.67;;;19.23;;
19291;SDS011;9779;51.756;7.450;2023-11-21T08:08:28;38.47;;;18.23;;
19291;SDS011;9779;51.756;7.450;2023-11-21T08:10:54;41.33;;;18.40;;
19291;SDS011;9779;51.756;7.450;2023-11-21T08:13:25;35.00;;;19.20;;
19291;SDS011;9779;51.756;7.450;2023-11-21T08:15:56;37.60;;;20.13;;
19291;SDS011;9779;51.756;7.450;2023-11-21T08:18:26;35.17;;;18.47;;
19291;SDS011;9779;51.756;7.450;2023-11-21T08:20:52;32.37;;;17.90;;
19291;SDS011;9779;51.756;7.450;2023-11-21T08:23:20;37.37;;;19.50;;
19291;SDS011;9779;51.756;7.450;2023-11-21T08:25:50;35.37;;;19.30;;
19291;SDS011;9779;51.756;7.450;2023-11-21T08:28:16;40.20;;;17.90;;
19291;SDS011;9779;51.756;7.450;2023-11-21T08:30:42;37.43;;;18.20;;
19291;SDS011;9779;51.756;7.450;2023-11-21T08:33:07;30.60;;;17.70;;
19291;SDS011;9779;51.756;7.450;2023-11-21T08:35:36;34.57;;;19.00;;
19291;SDS011;9779;51.756;7.450;2023-11-21T08:38:03;28.70;;;17.43;;
19291;SDS011;9779;51.756;7.450;2023-11-21T08:40:29;29.67;;;17.63;;
19291;SDS011;9779;51.756;7.450;2023-11-21T08:42:55;33.30;;;18.20;;
19291;SDS011;9779;51.756;7.450;2023-11-21T08:45:24;29.00;;;18.17;;
19291;SDS011;9779;51.756;7.450;2023-11-21T08:47:51;25.03;;;17.33;;
19291;SDS011;9779;51.756;7.450;2023-11-21T08:50:17;26.67;;;16.37;;
19291;SDS011;9779;51.756;7.450;2023-11-21T08:52:43;27.83;;;16.87;;
19291;SDS011;9779;51.756;7.450;2023-11-21T08:55:11;22.97;;;15.70;;
19291;SDS011;9779;51.756;7.450;2023-11-21T08:57:40;22.83;;;14.43;;
19291;SDS011;9779;51.756;7.450;2023-11-21T09:00:08;20.97;;;15.13;;
19291;SDS011;9779;51.756;7.450;2023-11-21T09:02:36;24.07;;;15.07;;
19291;SDS011;9779;51.756;7.450;2023-11-21T09:05:07;16.43;;;14.40;;
19291;SDS011;9779;51.756;7.450;2023-11-21T09:07:34;18.77;;;14.00;;
19291;SDS011;9779;51.756;7.450;2023-11-21T09:10:00;20.93;;;14.30;;
19291;SDS011;9779;51.756;7.450;2023-11-21T09:12:26;22.37;;;14.03;;
19291;SDS011;9779;51.756;7.450;2023-11-21T09:14:52;15.23;;;13.27;;
19291;SDS011;9779;51.756;7.450;2023-11-21T09:17:18;15.77;;;13.60;;
19291;SDS011;9779;51.756;7.450;2023-11-21T09:19:43;15.77;;;14.13;;
19291;SDS011;9779;51.756;7.450;2023-11-21T09:22:16;15.33;;;13.07;;
19291;SDS011;9779;51.756;7.450;2023-11-21T09:24:42;14.43;;;12.97;;
19291;SDS011;9779;51.756;7.450;2023-11-21T09:27:08;15.77;;;13.30;;
19291;SDS011;9779;51.756;7.450;2023-11-21T09:29:34;19.40;;;13.97;;
19291;SDS011;9779;51.756;7.450;2023-11-21T09:32:00;18.97;;;12.90;;
19291;SDS011;9779;51.756;7.450;2023-11-21T09:34:26;15.13;;;13.60;;
19291;SDS011;9779;51.756;7.450;2023-11-21T09:36:52;15.93;;;13.50;;
19291;SDS011;9779;51.756;7.450;2023-11-21T09:39:18;14.73;;;12.87;;
19291;SDS011;9779;51.756;7.450;2023-11-21T09:41:46;16.10;;;14.13;;
19291;SDS011;9779;51.756;7.450;2023-11-21T09:44:16;17.83;;;14.07;;
19291;SDS011;9779;51.756;7.450;2023-11-21T09:46:47;18.17;;;15.03;;
19291;SDS011;9779;51.756;7.450;2023-11-21T09:49:17;18.40;;;13.93;;
19291;SDS011;9779;51.756;7.450;2023-11-21T09:51:45;21.60;;;14.47;;
19291;SDS011;9779;51.756;7.450;2023-11-21T09:54:13;19.63;;;14.87;;
19291;SDS011;9779;51.756;7.450;2023-11-21T09:56:41;16.77;;;14.53;;
19291;SDS011;9779;51.756;7.450;2023-11-21T09:59:07;18.47;;;14.20;;
19291;SDS011;9779;51.756;7.450;2023-11-21T10:01:38;14.57;;;13.03;;
19291;SDS011;9779;51.756;7.450;2023-11-21T10:04:05;18.67;;;14.20;;
19291;SDS011;9779;51.756;7.450;2023-11-21T10:06:36;17.27;;;14.10;;
19291;SDS011;9779;51.756;7.450;2023-11-21T10:09:08;16.13;;;13.43;;
19291;SDS011;9779;51.756;7.450;2023-11-21T10:11:39;20.30;;;13.43;;
19291;SDS011;9779;51.756;7.450;2023-11-21T10:14:12;17.13;;;13.13;;
19291;SDS011;9779;51.756;7.450;2023-11-21T10:16:39;16.03;;;12.43;;
19291;SDS011;9779;51.756;7.450;2023-11-21T10:19:08;14.17;;;12.87;;
19291;SDS011;9779;51.756;7.450;2023-11-21T10:21:35;13.77;;;12.47;;
19291;SDS011;9779;51.756;7.450;2023-11-21T10:24:03;14.37;;;12.73;;
19291;SDS011;9779;51.756;7.450;2023-11-21T10:26:29;15.33;;;13.00;;
19291;SDS011;9779;51.756;7.450;2023-11-21T10:28:57;12.90;;;11.80;;
19291;SDS011;9779;51.756;7.450;2023-11-21T10:31:24;18.63;;;13.70;;
19291;SDS011;9779;51.756;7.450;2023-11-21T10:33:56;16.03;;;13.30;;
19291;SDS011;9779;51.756;7.450;2023-11-21T10:36:44;13.67;;;10.60;;
19291;SDS011;9779;51.756;7.450;2023-11-21T10:39:14;19.33;;;13.97;;
19291;SDS011;9779;51.756;7.450;2023-11-21T10:41:47;15.10;;;11.60;;
19291;SDS011;9779;51.756;7.450;2023-11-21T10:44:13;15.93;;;14.23;;
19291;SDS011;9779;51.756;7.450;2023-11-21T10:46:55;37.83;;;27.70;;
19291;SDS011;9779;51.756;7.450;2023-11-21T10:49:27;45.70;;;30.40;;
19291;SDS011;9779;51.756;7.450;2023-11-21T10:51:53;37.60;;;24.53;;
19291;SDS011;9779;51.756;7.450;2023-11-21T10:54:24;48.13;;;33.63;;
19291;SDS011;9779;51.756;7.450;2023-11-21T10:56:53;30.93;;;21.70;;
19291;SDS011;9779;51.756;7.450;2023-11-21T10:59:23;21.80;;;16.30;;
19291;SDS011;9779;51.756;7.450;2023-11-21T11:01:53;18.57;;;14.27;;
19291;SDS011;9779;51.756;7.450;2023-11-21T11:04:22;14.63;;;13.13;;
19291;SDS011;9779;51.756;7.450;2023-11-21T11:07:00;22.73;;;15.30;;
19291;SDS011;9779;51.756;7.450;2023-11-21T11:09:28;20.57;;;15.43;;
19291;SDS011;9779;51.756;7.450;2023-11-21T11:11:58;20.47;;;17.70;;
19291;SDS011;9779;51.756;7.450;2023-11-21T11:14:24;18.73;;;15.90;;
19291;SDS011;9779;51.756;7.450;2023-11-21T11:16:53;19.40;;;12.53;;
19291;SDS011;9779;51.756;7.450;2023-11-21T11:19:20;15.17;;;13.73;;
19291;SDS011;9779;51.756;7.450;2023-11-21T11:21:49;15.63;;;13.53;;
19291;SDS011;9779;51.756;7.450;2023-11-21T11:24:33;12.77;;;11.40;;
19291;SDS011;9779;51.756;7.450;2023-11-21T11:27:20;73.13;;;12.47;;
19291;SDS011;9779;51.756;7.450;2023-11-21T11:35:17;12.37;;;10.93;;
19291;SDS011;9779;51.756;7.450;2023-11-21T11:37:58;12.50;;;11.40;;
19291;SDS011;9779;51.756;7.450;2023-11-21T11:40:25;13.50;;;11.37;;
19291;SDS011;9779;51.756;7.450;2023-11-21T11:43:05;16.53;;;11.97;;
19291;SDS011;9779;51.756;7.450;2023-11-21T11:45:32;10.53;;;9.47;;
19291;SDS011;9779;51.756;7.450;2023-11-21T11:48:00;10.40;;;9.40;;
19291;SDS011;9779;51.756;7.450;2023-11-21T11:50:28;9.60;;;8.60;;
19291;SDS011;9779;51.756;7.450;2023-11-21T11:52:55;8.50;;;7.80;;
19291;SDS011;9779;51.756;7.450;2023-11-21T11:55:36;10.37;;;8.00;;
19291;SDS011;9779;51.756;7.450;2023-11-21T11:58:04;9.83;;;9.03;;
19291;SDS011;9779;51.756;7.450;2023-11-21T12:02:58;8.40;;;7.80;;
19291;SDS011;9779;51.756;7.450;2023-11-21T12:05:28;8.93;;;8.07;;
19291;SDS011;9779;51.756;7.450;2023-11-21T12:07:59;8.47;;;7.73;;
19291;SDS011;9779;51.756;7.450;2023-11-21T12:10:35;9.57;;;8.50;;
19291;SDS011;9779;51.756;7.450;2023-11-21T12:13:04;9.47;;;8.33;;
19291;SDS011;9779;51.756;7.450;2023-11-21T12:15:35;10.10;;;9.27;;
19291;SDS011;9779;51.756;7.450;2023-11-21T12:18:01;10.13;;;9.13;;
19291;SDS011;9779;51.756;7.450;2023-11-21T12:20:27;9.27;;;8.43;;
19291;SDS011;9779;51.756;7.450;2023-11-21T12:22:57;10.13;;;9.13;;
19291;SDS011;9779;51.756;7.450;2023-11-21T12:25:28;10.53;;;8.93;;
19291;SDS011;9779;51.756;7.450;2023-11-21T12:27:57;9.83;;;8.93;;
19291;SDS011;9779;51.756;7.450;2023-11-21T12:30:24;9.20;;;8.40;;
19291;SDS011;9779;51.756;7.450;2023-11-21T12:32:55;8.80;;;8.10;;
19291;SDS011;9779;51.756;7.450;2023-11-21T12:35:23;11.70;;;8.87;;
19291;SDS011;9779;51.756;7.450;2023-11-21T12:37:51;9.87;;;8.97;;
19291;SDS011;9779;51.756;7.450;2023-11-21T12:40:18;10.60;;;8.83;;
19291;SDS011;9779;51.756;7.450;2023-11-21T12:42:47;8.93;;;8.03;;
19291;SDS011;9779;51.756;7.450;2023-11-21T12:47:43;9.10;;;8.20;;
19291;SDS011;9779;51.756;7.450;2023-11-21T12:50:10;8.70;;;7.87;;
19291;SDS011;9779;51.756;7.450;2023-11-21T12:52:45;10.73;;;7.70;;
19291;SDS011;9779;51.756;7.450;2023-11-21T12:55:17;9.00;;;8.20;;
19291;SDS011;9779;51.756;7.450;2023-11-21T12:57:47;7.60;;;7.03;;
19291;SDS011;9779;51.756;7.450;2023-11-21T13:00:15;7.80;;;7.07;;
19291;SDS011;9779;51.756;7.450;2023-11-21T13:02:52;7.83;;;7.30;;
19291;SDS011;9779;51.756;7.450;2023-11-21T13:05:28;13.00;;;5.87;;
19291;SDS011;9779;51.756;7.450;2023-11-21T13:08:04;13.77;;;6.30;;
19291;SDS011;9779;51.756;7.450;2023-11-21T13:10:33;8.57;;;7.43;;
19291;SDS011;9779;51.756;7.450;2023-11-21T13:13:01;8.53;;;7.93;;
19291;SDS011;9779;51.756;7.450;2023-11-21T13:15:30;33.33;;;22.87;;
19291;SDS011;9779;51.756;7.450;2023-11-21T13:17:57;24.13;;;18.00;;
19291;SDS011;9779;51.756;7.450;2023-11-21T13:20:26;58.30;;;34.60;;
19291;SDS011;9779;51.756;7.450;2023-11-21T13:22:52;9.93;;;9.23;;
19291;SDS011;9779;51.756;7.450;2023-11-21T13:25:22;5.97;;;5.57;;
19291;SDS011;9779;51.756;7.450;2023-11-21T13:27:53;5.50;;;5.10;;
19291;SDS011;9779;51.756;7.450;2023-11-21T13:30:19;5.27;;;4.97;;
19291;SDS011;9779;51.756;7.450;2023-11-21T13:32:51;5.30;;;5.00;;
19291;SDS011;9779;51.756;7.450;2023-11-21T13:35:17;4.97;;;4.37;;
19291;SDS011;9779;51.756;7.450;2023-11-21T13:37:51;4.40;;;4.00;;
19291;SDS011;9779;51.756;7.450;2023-11-21T13:40:21;4.20;;;4.00;;
19291;SDS011;9779;51.756;7.450;2023-11-21T13:42:51;4.57;;;4.17;;
19291;SDS011;9779;51.756;7.450;2023-11-21T13:45:19;4.40;;;4.10;;
19291;SDS011;9779;51.756;7.450;2023-11-21T13:47:48;3.83;;;3.63;;
19291;SDS011;9779;51.756;7.450;2023-11-21T13:50:20;4.37;;;4.07;;
19291;SDS011;9779;51.756;7.450;2023-11-21T13:52:49;4.67;;;4.37;;
19291;SDS011;9779;51.756;7.450;2023-11-21T13:55:19;4.73;;;4.40;;
19291;SDS011;9779;51.756;7.450;2023-11-21T13:57:46;4.27;;;4.00;;
19291;SDS011;9779;51.756;7.450;2023-11-21T14:00:17;4.57;;;4.27;;
19291;SDS011;9779;51.756;7.450;2023-11-21T14:03:04;4.60;;;4.30;;
19291;SDS011;9779;51.756;7.450;2023-11-21T14:05:35;4.93;;;4.63;;
19291;SDS011;9779;51.756;7.450;2023-11-21T14:08:01;4.70;;;4.30;;
19291;SDS011;9779;51.756;7.450;2023-11-21T14:10:30;4.90;;;4.40;;
19291;SDS011;9779;51.756;7.450;2023-11-21T14:13:07;6.50;;;5.00;;
19291;SDS011;9779;51.756;7.450;2023-11-21T14:15:35;4.37;;;4.07;;
19291;SDS011;9779;51.756;7.450;2023-11-21T14:18:06;4.70;;;4.40;;
19291;SDS011;9779;51.756;7.450;2023-11-21T14:20:35;4.50;;;4.20;;
19291;SDS011;9779;51.756;7.450;2023-11-21T14:23:02;5.80;;;5.30;;
19291;SDS011;9779;51.756;7.450;2023-11-21T14:25:31;5.90;;;5.00;;
19291;SDS011;9779;51.756;7.450;2023-11-21T14:27:57;6.97;;;6.47;;
19291;SDS011;9779;51.756;7.450;2023-11-21T14:30:23;7.23;;;6.63;;
19291;SDS011;9779;51.756;7.450;2023-11-21T14:32:49;13.13;;;11.77;;
19291;SDS011;9779;51.756;7.450;2023-11-21T14:35:16;7.40;;;6.80;;
19291;SDS011;9779;51.756;7.450;2023-11-21T14:37:42;7.63;;;7.13;;
19291;SDS011;9779;51.756;7.450;2023-11-21T14:40:08;8.10;;;7.60;;
19291;SDS011;9779;51.756;7.450;2023-11-21T14:42:34;8.30;;;7.80;;
19291;SDS011;9779;51.756;7.450;2023-11-21T14:45:02;8.70;;;8.13;;
19291;SDS011;9779;51.756;7.450;2023-11-21T14:47:32;8.60;;;8.00;;
19291;SDS011;9779;51.756;7.450;2023-11-21T14:49:59;10.17;;;8.40;;
19291;SDS011;9779;51.756;7.450;2023-11-21T14:52:47;9.80;;;8.93;;
19291;SDS011;9779;51.756;7.450;2023-11-21T14:55:24;10.57;;;9.37;;
19291;SDS011;9779;51.756;7.450;2023-11-21T14:58:19;11.23;;;10.10;;
19291;SDS011;9779;51.756;7.450;2023-11-21T15:00:57;13.27;;;9.23;;
19291;SDS011;9779;51.756;7.450;2023-11-21T15:03:27;11.73;;;10.63;;